weather.gov     
National Weather Service

Terminal Aerodrome Forecast
NWS Homepage
This page is being discontinued on March 12, 2014.
The same data is available at this site. Please update your bookmarks.
Thank you, and we apologize for the inconvenience.
Please send an email to SR-SRH.Webmaster@noaa.gov with any concerns.


Current Version
Previous Version:    01  02  03  04  05  06  07  08  09  10  11  12  13  14  15  16  17  18  19  20  21  22  23  24  25  26  27  28  29  30  
   31  32  33  34  35  36  37  
[Printable]
480
FTUS46 KLOX 010500
TAFSMX
TAF
KSMX 010535Z 0106/0206 12008KT 6SM -RA BR SCT022 OVC040
     FM010800 27008KT 4SM -SHRA BR SCT015 OVC025
     FM011200 VRB03KT P6SM VCSH BKN025 OVC040
     FM011400 VRB03KT P6SM VCSH SCT025 OVC050
     FM011800 VRB03KT P6SM BKN050
     FM012100 28008KT P6SM SCT050
     FM020000 30010KT P6SM VCSH OVC050=


U.S. Dept. of Commerce
NOAA National Weather Service
1325 East West Highway
Silver Spring, MD 20910
E-mail: w-nws.webmaster@noaa.gov
Page last modified: May 16, 2007
NATIONAL WEATHER SERVICE: for Safety, for Work, for Fun - FOR LIFE